Observation data for Seagraves on 02/14/2020      Previous  Date  Next       Current Mesonet Observations  Soil Data  Daily Summary Page  Observations in Plain Language
KSGV 140600Z 13008KT M02/M02 A3026 RMK A01 T10151021  RH  097%=      5-min Rain = 0
KSGV 140605Z 12008KT M02/M02 A3026 RMK A01 T10161022  RH  096%=      5-min Rain = 0
KSGV 140610Z 12008G14KT M02/M02 A3026 RMK A01 T10171024  RH  096%=      5-min Rain = 0
KSGV 140615Z 13010G15KT M02/M03 A3026 RMK A01 T10191027  RH  095%=      5-min Rain = 0
KSGV 140620Z 12009G14KT M02/M03 A3026 RMK A01 T10201030  RH  094%=      5-min Rain = 0
KSGV 140625Z 12008G14KT M02/M03 A3026 RMK A01 T10221031  RH  094%=      5-min Rain = 0
KSGV 140630Z 12009KT M02/M03 A3026 RMK A01 T10221032  RH  094%=      5-min Rain = 0
KSGV 140635Z 11008KT M02/M03 A3026 RMK A01 T10231032  RH  094%=      5-min Rain = 0
KSGV 140640Z 12007KT M02/M03 A3026 RMK A01 T10241033  RH  094%=      5-min Rain = 0
KSGV 140645Z 12007KT M03/M03 A3026 RMK A01 T10251033  RH  095%=      5-min Rain = 0
KSGV 140650Z 12007G12KT M03/M03 A3026 RMK A01 T10251033  RH  095%=      5-min Rain = 0
KSGV 140655Z 12008KT M02/M03 A3027 RMK A01 T10241031  RH  095%=      5-min Rain = 0
KSGV 140700Z 12008G13KT M02/M03 A3027 RMK A01 T10231031  RH  095%=      5-min Rain = 0
KSGV 140705Z 12009KT M02/M03 A3026 RMK A01 T10221030  RH  095%=      5-min Rain = 0
KSGV 140710Z 12008G14KT M02/M03 A3026 RMK A01 T10221030  RH  095%=      5-min Rain = 0
KSGV 140715Z 11010G15KT M02/M03 A3027 RMK A01 T10221030  RH  095%=      5-min Rain = 0
KSGV 140720Z 12010G16KT M02/M03 A3026 RMK A01 T10221030  RH  095%=      5-min Rain = 0
KSGV 140725Z 11011G16KT M02/M03 A3027 RMK A01 T10221030  RH  095%=      5-min Rain = 0
KSGV 140730Z 12009KT M02/M03 A3027 RMK A01 T10221030  RH  095%=      5-min Rain = 0
KSGV 140735Z 11010G15KT M02/M03 A3027 RMK A01 T10221030  RH  095%=      5-min Rain = 0
KSGV 140740Z 11010G17KT M02/M03 A3027 RMK A01 T10231030  RH  095%=      5-min Rain = 0
KSGV 140745Z 11009G14KT M02/M03 A3027 RMK A01 T10231030  RH  095%=      5-min Rain = 0
KSGV 140750Z 11009G14KT M02/M03 A3027 RMK A01 T10221030  RH  095%=      5-min Rain = 0
KSGV 140755Z 11009G14KT M02/M03 A3027 RMK A01 T10221030  RH  095%=      5-min Rain = 0
KSGV 140800Z 12010G15KT M02/M03 A3027 RMK A01 T10231030  RH  095%=      5-min Rain = 0
KSGV 140805Z 12009G16KT M02/M03 A3027 RMK A01 T10231030  RH  095%=      5-min Rain = 0
KSGV 140810Z 12011G16KT M02/M03 A3027 RMK A01 T10241031  RH  096%=      5-min Rain = 0
KSGV 140815Z 12009G16KT M02/M03 A3027 RMK A01 T10241031  RH  096%=      5-min Rain = 0
KSGV 140820Z 12009KT M02/M03 A3027 RMK A01 T10241030  RH  096%=      5-min Rain = 0
KSGV 140825Z 12008G14KT M02/M03 A3027 RMK A01 T10241030  RH  097%=      5-min Rain = 0
KSGV 140830Z 12009KT M03/M03 A3027 RMK A01 T10251030  RH  097%=      5-min Rain = 0
KSGV 140835Z 12008KT M03/M03 A3027 RMK A01 T10251029  RH  098%=      5-min Rain = 0
KSGV 140840Z 13007G13KT M02/M03 A3027 RMK A01 T10241028  RH  098%=      5-min Rain = 0
KSGV 140845Z 13009G14KT M02/M03 A3027 RMK A01 T10241027  RH  098%=      5-min Rain = 0
KSGV 140850Z 13009G14KT M02/M03 A3027 RMK A01 T10231026  RH  099%=      5-min Rain = 0
KSGV 140855Z 12008KT M02/M03 A3027 RMK A01 T10231026  RH  099%=      5-min Rain = 0
KSGV 140900Z 13008G13KT M02/M03 A3027 RMK A01 T10231025  RH  099%=      5-min Rain = 0
KSGV 140905Z 13008G13KT M02/M03 A3027 RMK A01 T10221025  RH  099%=      5-min Rain = 0
KSGV 140910Z 13007KT M02/M02 A3027 RMK A01 T10221024  RH  099%=      5-min Rain = 0
KSGV 140915Z 14009KT M02/M02 A3027 RMK A01 T10211023  RH  099%=      5-min Rain = 0
KSGV 140920Z 14008KT M02/M02 A3027 RMK A01 T10201022  RH  099%=      5-min Rain = 0
KSGV 140925Z 13007KT M02/M02 A3027 RMK A01 T10201022  RH  099%=      5-min Rain = 0
KSGV 140930Z 12008G13KT M02/M02 A3027 RMK A01 T10201021  RH  099%=      5-min Rain = 0
KSGV 140935Z 14008KT M02/M02 A3027 RMK A01 T10191021  RH  100%=      5-min Rain = 0
KSGV 140940Z 12007KT M02/M02 A3027 RMK A01 T10191020  RH  100%=      5-min Rain = 0
KSGV 140945Z 12006G11KT M02/M02 A3027 RMK A01 T10191021  RH  100%=      5-min Rain = 0
KSGV 140950Z 12006G11KT M02/M02 A3027 RMK A01 T10191020  RH  100%=      5-min Rain = 0
KSGV 140955Z 12007G12KT M02/M02 A3027 RMK A01 T10191020  RH  100%=      5-min Rain = 0
KSGV 141000Z 12008G13KT M02/M02 A3027 RMK A01 T10201021  RH  100%=      5-min Rain = 0
KSGV 141005Z 13007G12KT M02/M02 A3027 RMK A01 T10191021  RH  100%=      5-min Rain = 0
KSGV 141010Z 13008KT M02/M02 A3027 RMK A01 T10201021  RH  100%=      5-min Rain = 0
KSGV 141015Z 13008G13KT M02/M02 A3027 RMK A01 T10211022  RH  100%=      5-min Rain = 0
KSGV 141020Z 13008KT M02/M02 A3027 RMK A01 T10201022  RH  100%=      5-min Rain = 0
KSGV 141025Z 12009KT M02/M02 A3027 RMK A01 T10211022  RH  100%=      5-min Rain = 0
KSGV 141030Z 12009KT M02/M02 A3026 RMK A01 T10211023  RH  100%=      5-min Rain = 0
KSGV 141035Z 13010KT M02/M02 A3026 RMK A01 T10211023  RH  099%=      5-min Rain = 0
KSGV 141040Z 12009G14KT M02/M02 A3026 RMK A01 T10211024  RH  099%=      5-min Rain = 0
KSGV 141045Z 13009G14KT M02/M02 A3026 RMK A01 T10211024  RH  099%=      5-min Rain = 0
KSGV 141050Z 13007G12KT M02/M02 A3026 RMK A01 T10211024  RH  099%=      5-min Rain = 0
KSGV 141055Z 13008G14KT M02/M02 A3026 RMK A01 T10201024  RH  098%=      5-min Rain = 0
KSGV 141100Z 13008KT M02/M02 A3026 RMK A01 T10211024  RH  098%=      5-min Rain = 0
KSGV 141105Z 13009KT M02/M02 A3026 RMK A01 T10201024  RH  098%=      5-min Rain = 0
KSGV 141110Z 13007G12KT M02/M02 A3026 RMK A01 T10211024  RH  098%=      5-min Rain = 0
KSGV 141115Z 13008KT M02/M02 A3026 RMK A01 T10201024  RH  098%=      5-min Rain = 0
KSGV 141120Z 13008KT M02/M02 A3026 RMK A01 T10211024  RH  098%=      5-min Rain = 0
KSGV 141125Z 13008KT M02/M02 A3027 RMK A01 T10211024  RH  098%=      5-min Rain = 0
KSGV 141130Z 14008G14KT M02/M02 A3027 RMK A01 T10201023  RH  098%=      5-min Rain = 0
KSGV 141135Z 14009KT M02/M02 A3027 RMK A01 T10201024  RH  098%=      5-min Rain = 0
KSGV 141140Z 14009KT M02/M02 A3027 RMK A01 T10201024  RH  098%=      5-min Rain = 0
KSGV 141145Z 13007G12KT M02/M02 A3027 RMK A01 T10201023  RH  099%=      5-min Rain = 0
KSGV 141150Z 13008KT M02/M02 A3027 RMK A01 T10201023  RH  099%=      5-min Rain = 0
KSGV 141155Z 14009KT M02/M02 A3027 RMK A01 T10211023  RH  099%=      5-min Rain = 0
KSGV 141200Z 14008KT M02/M02 A3027 RMK A01 T10201023  RH  099%=      5-min Rain = 0
KSGV 141205Z 14007KT M02/M02 A3027 RMK A01 T10201023  RH  099%=      5-min Rain = 0
KSGV 141210Z 14008KT M02/M02 A3027 RMK A01 T10201022  RH  099%=      5-min Rain = 0
KSGV 141215Z 14008KT M02/M02 A3027 RMK A01 T10201023  RH  099%=      5-min Rain = 0
KSGV 141220Z 15006KT M02/M02 A3027 RMK A01 T10191021  RH  099%=      5-min Rain = 0
KSGV 141225Z 14008KT M02/M02 A3027 RMK A01 T10191021  RH  099%=      5-min Rain = 0
KSGV 141230Z 14007KT M02/M02 A3028 RMK A01 T10191021  RH  099%=      5-min Rain = 0
KSGV 141235Z 14007KT M02/M02 A3028 RMK A01 T10191021  RH  099%=      5-min Rain = 0
KSGV 141240Z 14007KT M02/M02 A3028 RMK A01 T10181020  RH  099%=      5-min Rain = 0
KSGV 141245Z 14008KT M02/M02 A3028 RMK A01 T10181020  RH  099%=      5-min Rain = 0
KSGV 141250Z 14006KT M02/M02 A3029 RMK A01 T10181020  RH  099%=      5-min Rain = 0
KSGV 141255Z 14007KT M02/M02 A3028 RMK A01 T10181020  RH  099%=      5-min Rain = 0
KSGV 141300Z 14006KT M02/M02 A3028 RMK A01 T10181020  RH  099%=      5-min Rain = 0
KSGV 141305Z 13007KT M02/M02 A3028 RMK A01 T10181020  RH  099%=      5-min Rain = 0
KSGV 141310Z 13006KT M02/M02 A3028 RMK A01 T10181020  RH  099%=      5-min Rain = 0
KSGV 141315Z 13005KT M02/M02 A3028 RMK A01 T10181020  RH  099%=      5-min Rain = 0
KSGV 141320Z 13006KT M02/M02 A3029 RMK A01 T10181020  RH  100%=      5-min Rain = 0
KSGV 141325Z 14007KT M02/M02 A3029 RMK A01 T10181020  RH  100%=      5-min Rain = 0
KSGV 141330Z 13006KT M02/M02 A3029 RMK A01 T10181020  RH  100%=      5-min Rain = 0
KSGV 141335Z 13006KT M02/M02 A3028 RMK A01 T10181020  RH  100%=      5-min Rain = 0
KSGV 141340Z 13006G11KT M02/M02 A3028 RMK A01 T10181020  RH  100%=      5-min Rain = 0
KSGV 141345Z 13007KT M02/M02 A3028 RMK A01 T10181020  RH  100%=      5-min Rain = 0
KSGV 141350Z 14007KT M02/M02 A3028 RMK A01 T10181020  RH  100%=      5-min Rain = 0
KSGV 141355Z 14006KT M02/M02 A3029 RMK A01 T10181019  RH  100%=      5-min Rain = 0
KSGV 141400Z 13006KT M02/M02 A3029 RMK A01 T10181019  RH  100%=      5-min Rain = 0
KSGV 141405Z 13006KT M02/M02 A3029 RMK A01 T10181019  RH  100%=      5-min Rain = 0
KSGV 141410Z 14007KT M02/M02 A3029 RMK A01 T10191020  RH  100%=      5-min Rain = 0
KSGV 141415Z 13006KT M02/M02 A3029 RMK A01 T10191020  RH  100%=      5-min Rain = 0
KSGV 141420Z 13005KT M02/M02 A3029 RMK A01 T10191020  RH  100%=      5-min Rain = 0
KSGV 141425Z 13006KT M02/M02 A3029 RMK A01 T10191020  RH  100%=      5-min Rain = 0
KSGV 141430Z 13006KT M02/M02 A3029 RMK A01 T10181019  RH  100%=      5-min Rain = 0
KSGV 141435Z 12006KT M02/M02 A3029 RMK A01 T10181019  RH  100%=      5-min Rain = 0
KSGV 141440Z 13005KT M02/M02 A3029 RMK A01 T10181019  RH  100%=      5-min Rain = 0
KSGV 141445Z 13006KT M02/M02 A3029 RMK A01 T10181019  RH  100%=      5-min Rain = 0
KSGV 141450Z 12005KT M02/M02 A3029 RMK A01 T10181019  RH  100%=      5-min Rain = 0
KSGV 141455Z 12005KT M02/M02 A3029 RMK A01 T10171018  RH  100%=      5-min Rain = 0
KSGV 141500Z 13006KT M02/M02 A3029 RMK A01 T10181019  RH  100%=      5-min Rain = 0
KSGV 141505Z 12005KT M02/M02 A3029 RMK A01 T10171018  RH  100%=      5-min Rain = 0
KSGV 141510Z 13006KT M02/M02 A3029 RMK A01 T10171018  RH  100%=      5-min Rain = 0
KSGV 141515Z 13005KT M02/M02 A3029 RMK A01 T10161017  RH  100%=      5-min Rain = 0
KSGV 141520Z 12006KT M02/M02 A3029 RMK A01 T10161017  RH  100%=      5-min Rain = 0
KSGV 141525Z 12005KT M02/M02 A3029 RMK A01 T10161017  RH  100%=      5-min Rain = 0
KSGV 141530Z 12006KT M02/M02 A3029 RMK A01 T10161017  RH  100%=      5-min Rain = 0
KSGV 141535Z 13006KT M02/M02 A3029 RMK A01 T10151016  RH  100%=      5-min Rain = 0
KSGV 141540Z 13005KT M01/M01 A3029 RMK A01 T10131014  RH  100%=      5-min Rain = 0
KSGV 141545Z 13007KT M01/M01 A303 RMK A01 T10131014  RH  100%=      5-min Rain = 0
KSGV 141550Z 14006KT M01/M01 A303 RMK A01 T10121013  RH  100%=      5-min Rain = 0
KSGV 141555Z 13007KT M01/M01 A303 RMK A01 T10111012  RH  100%=      5-min Rain = 0
KSGV 141600Z 13007KT M01/M01 A303 RMK A01 T10111012  RH  100%=      5-min Rain = 0
KSGV 141605Z 15007KT M01/M01 A303 RMK A01 T10101011  RH  100%=      5-min Rain = 0
KSGV 141610Z 15007G12KT M01/M01 A303 RMK A01 T10091011  RH  100%=      5-min Rain = 0
KSGV 141615Z 15007KT M01/M01 A3029 RMK A01 T10091010  RH  100%=      5-min Rain = 0
KSGV 141620Z 14007KT M01/M01 A3029 RMK A01 T10091010  RH  100%=      5-min Rain = 0
KSGV 141625Z 14007KT M01/M01 A3029 RMK A01 T10081009  RH  100%=      5-min Rain = 0
KSGV 141630Z 14006KT M01/M01 A3029 RMK A01 T10071009  RH  100%=      5-min Rain = 0
KSGV 141635Z 15008KT M01/M01 A3029 RMK A01 T10071009  RH  100%=      5-min Rain = 0
KSGV 141640Z 16008KT M01/M01 A3029 RMK A01 T10071008  RH  100%=      5-min Rain = 0
KSGV 141645Z 17010KT M01/M01 A3029 RMK A01 T10051007  RH  100%=      5-min Rain = 0
KSGV 141650Z 16009KT M01/M01 A3029 RMK A01 T10061007  RH  100%=      5-min Rain = 0
KSGV 141655Z 15007KT M01/M01 A3029 RMK A01 T10051007  RH  100%=      5-min Rain = 0
KSGV 141700Z 15008KT M00/M01 A3029 RMK A01 T10041006  RH  100%=      5-min Rain = 0
KSGV 141705Z 16009G14KT M01/M01 A3029 RMK A01 T10051006  RH  100%=      5-min Rain = 0
KSGV 141710Z 16010KT M00/M01 A3029 RMK A01 T10041005  RH  100%=      5-min Rain = 0
KSGV 141715Z 17009KT M00/M00 A3029 RMK A01 T10021004  RH  100%=      5-min Rain = 0
KSGV 141720Z 15008G13KT M00/M00 A3029 RMK A01 T10021003  RH  100%=      5-min Rain = 0
KSGV 141725Z 16008KT M00/M00 A3029 RMK A01 T10021003  RH  100%=      5-min Rain = 0
KSGV 141730Z 16007KT M00/M00 A3029 RMK A01 T10021003  RH  100%=      5-min Rain = 0
KSGV 141735Z 15008KT M00/M00 A3029 RMK A01 T10021004  RH  100%=      5-min Rain = 0
KSGV 141740Z 16010KT M00/M00 A3029 RMK A01 T10021004  RH  100%=      5-min Rain = 0
KSGV 141745Z 15008KT M00/M00 A3029 RMK A01 T10021003  RH  100%=      5-min Rain = 0
KSGV 141750Z 17009KT 00/00 A3028 RMK A01 T00-000-2  RH  100%=      5-min Rain = 0
KSGV 141755Z 17009KT 00/M00 A3028 RMK A01 T00011001  RH  100%=      5-min Rain = 0
KSGV 141800Z 16010KT 00/00 A3028 RMK A01 T000100-0  RH  100%=      5-min Rain = 0
KSGV 141805Z 17008KT 00/00 A3028 RMK A01 T00020000  RH  100%=      5-min Rain = 0
KSGV 141810Z 17009KT 00/00 A3027 RMK A01 T00020001  RH  100%=      5-min Rain = 0
KSGV 141815Z 16008KT 00/00 A3027 RMK A01 T00030002  RH  100%=      5-min Rain = 0
KSGV 141820Z 16007KT 00/00 A3027 RMK A01 T00040003  RH  100%=      5-min Rain = 0
KSGV 141825Z 16008KT 00/00 A3027 RMK A01 T00030001  RH  100%=      5-min Rain = 0
KSGV 141830Z 16008KT 00/00 A3027 RMK A01 T00040002  RH  100%=      5-min Rain = 0
KSGV 141835Z 17009KT 00/00 A3026 RMK A01 T00040003  RH  100%=      5-min Rain = 0
KSGV 141840Z 17008KT 01/00 A3026 RMK A01 T00050003  RH  100%=      5-min Rain = 0
KSGV 141845Z 16007KT 01/01 A3026 RMK A01 T00070005  RH  100%=      5-min Rain = 0
KSGV 141850Z 17008KT 01/01 A3026 RMK A01 T00070005  RH  100%=      5-min Rain = 0
KSGV 141855Z 17008KT 01/01 A3026 RMK A01 T00080005  RH  100%=      5-min Rain = 0
KSGV 141900Z 16008KT 01/01 A3025 RMK A01 T00080005  RH  099%=      5-min Rain = 0
KSGV 141905Z 17008KT 01/00 A3025 RMK A01 T00090004  RH  098%=      5-min Rain = 0
KSGV 141910Z 17009KT 01/00 A3025 RMK A01 T00090003  RH  097%=      5-min Rain = 0
KSGV 141915Z 17009KT 01/00 A3025 RMK A01 T00100002  RH  095%=      5-min Rain = 0
KSGV 141920Z 16007KT 01/00 A3024 RMK A01 T00120003  RH  094%=      5-min Rain = 0
KSGV 141925Z 17008KT 01/00 A3024 RMK A01 T00130002  RH  093%=      5-min Rain = 0
KSGV 141930Z 17008KT 01/00 A3024 RMK A01 T00140002  RH  092%=      5-min Rain = 0
KSGV 141935Z 17009KT 02/00 A3023 RMK A01 T00160002  RH  091%=      5-min Rain = 0
KSGV 141940Z 17009KT 02/00 A3023 RMK A01 T00170001  RH  090%=      5-min Rain = 0
KSGV 141945Z 17009KT 02/00 A3023 RMK A01 T00180002  RH  090%=      5-min Rain = 0
KSGV 141950Z 17008KT 02/00 A3023 RMK A01 T00180001  RH  090%=      5-min Rain = 0
KSGV 141955Z 16008KT 02/00 A3022 RMK A01 T00190002  RH  089%=      5-min Rain = 0
KSGV 142000Z 17010KT 02/00 A3022 RMK A01 T00210003  RH  089%=      5-min Rain = 0
KSGV 142005Z 18008KT 02/00 A3022 RMK A01 T00230003  RH  088%=      5-min Rain = 0
KSGV 142010Z 17009KT 02/00 A3021 RMK A01 T00230002  RH  087%=      5-min Rain = 0
KSGV 142015Z 17009KT 02/00 A3021 RMK A01 T00220002  RH  087%=      5-min Rain = 0
KSGV 142020Z 18009G14KT 03/00 A302 RMK A01 T00250003  RH  087%=      5-min Rain = 0
KSGV 142025Z 15008KT 03/00 A302 RMK A01 T00260003  RH  086%=      5-min Rain = 0
KSGV 142030Z 16009KT 02/00 A302 RMK A01 T00240002  RH  087%=      5-min Rain = 0
KSGV 142035Z 16009KT 03/00 A302 RMK A01 T00250003  RH  087%=      5-min Rain = 0
KSGV 142040Z 17009KT 03/00 A3019 RMK A01 T00260004  RH  086%=      5-min Rain = 0
KSGV 142045Z 16008KT 03/01 A3019 RMK A01 T00300005  RH  085%=      5-min Rain = 0
KSGV 142050Z 15009KT 03/01 A3019 RMK A01 T00300005  RH  084%=      5-min Rain = 0
KSGV 142055Z 15007KT 03/01 A3019 RMK A01 T00330006  RH  084%=      5-min Rain = 0
KSGV 142100Z 16010KT 03/00 A3019 RMK A01 T00330004  RH  082%=      5-min Rain = 0
KSGV 142105Z 16010KT 03/01 A3018 RMK A01 T00340005  RH  082%=      5-min Rain = 0
KSGV 142110Z 16010KT 04/01 A3018 RMK A01 T00360005  RH  081%=      5-min Rain = 0
KSGV 142115Z 15009KT 04/01 A3018 RMK A01 T00370005  RH  081%=      5-min Rain = 0
KSGV 142120Z 17010G15KT 04/01 A3018 RMK A01 T00440008  RH  079%=      5-min Rain = 0
KSGV 142125Z 17010KT 05/01 A3017 RMK A01 T00490007  RH  075%=      5-min Rain = 0
KSGV 142130Z 16009G14KT 05/01 A3017 RMK A01 T00450005  RH  076%=      5-min Rain = 0
KSGV 142135Z 15009KT 04/00 A3017 RMK A01 T00430004  RH  077%=      5-min Rain = 0
KSGV 142140Z 15008KT 04/01 A3017 RMK A01 T00410006  RH  079%=      5-min Rain = 0
KSGV 142145Z 16010KT 05/01 A3017 RMK A01 T00490009  RH  076%=      5-min Rain = 0
KSGV 142150Z 15008KT 04/01 A3016 RMK A01 T00440005  RH  077%=      5-min Rain = 0
KSGV 142155Z 16010KT 04/01 A3016 RMK A01 T00420005  RH  078%=      5-min Rain = 0
KSGV 142200Z 15009G15KT 04/00 A3016 RMK A01 T00380004  RH  080%=      5-min Rain = 0
KSGV 142205Z 16010G15KT 04/01 A3016 RMK A01 T00420008  RH  079%=      5-min Rain = 0
KSGV 142210Z 17010KT 05/01 A3016 RMK A01 T00490009  RH  076%=      5-min Rain = 0
KSGV 142215Z 16010KT 05/01 A3016 RMK A01 T00490007  RH  076%=      5-min Rain = 0
KSGV 142220Z 14008G13KT 05/01 A3016 RMK A01 T00520009  RH  075%=      5-min Rain = 0
KSGV 142225Z 15009KT 05/01 A3016 RMK A01 T00470007  RH  076%=      5-min Rain = 0
KSGV 142230Z 13010KT 05/01 A3015 RMK A01 T00500010  RH  076%=      5-min Rain = 0
KSGV 142235Z 14009G14KT 05/01 A3015 RMK A01 T00490009  RH  076%=      5-min Rain = 0
KSGV 142240Z 14009KT 05/01 A3015 RMK A01 T00500009  RH  076%=      5-min Rain = 0
KSGV 142245Z 13009KT 05/01 A3015 RMK A01 T00460008  RH  077%=      5-min Rain = 0
KSGV 142250Z 13007G13KT 05/01 A3014 RMK A01 T00510011  RH  076%=      5-min Rain = 0
KSGV 142255Z 14009G14KT 05/01 A3015 RMK A01 T00540010  RH  074%=      5-min Rain = 0
KSGV 142300Z 14010G15KT 05/01 A3015 RMK A01 T00530009  RH  074%=      5-min Rain = 0
KSGV 142305Z 13008G13KT 05/01 A3015 RMK A01 T00540010  RH  075%=      5-min Rain = 0
KSGV 142310Z 14008G14KT 05/01 A3014 RMK A01 T00530010  RH  075%=      5-min Rain = 0
KSGV 142315Z 14010G15KT 05/01 A3014 RMK A01 T00540009  RH  074%=      5-min Rain = 0
KSGV 142320Z 14010KT 06/01 A3014 RMK A01 T00550010  RH  074%=      5-min Rain = 0
KSGV 142325Z 14009KT 06/01 A3015 RMK A01 T00550010  RH  074%=      5-min Rain = 0
KSGV 142330Z 14010KT 06/01 A3015 RMK A01 T00560010  RH  073%=      5-min Rain = 0
KSGV 142335Z 14010KT 06/01 A3014 RMK A01 T00560011  RH  074%=      5-min Rain = 0
KSGV 142340Z 14010G15KT 06/01 A3014 RMK A01 T00580011  RH  073%=      5-min Rain = 0
KSGV 142345Z 15009G14KT 06/01 A3014 RMK A01 T00570010  RH  073%=      5-min Rain = 0
KSGV 142350Z 15010KT 06/01 A3014 RMK A01 T00570011  RH  073%=      5-min Rain = 0
KSGV 142355Z 14009G14KT 06/01 A3014 RMK A01 T00570011  RH  073%=      5-min Rain = 0
KSGV 150000Z 14009KT 06/01 A3014 RMK A01 T00560010  RH  074%=      5-min Rain = 0
KSGV 150005Z 14009G14KT 05/01 A3014 RMK A01 T00520009  RH  075%=      5-min Rain = 0
KSGV 150010Z 13008G14KT 05/01 A3014 RMK A01 T00500010  RH  076%=      5-min Rain = 0
KSGV 150015Z 14007KT 05/01 A3014 RMK A01 T00490009  RH  077%=      5-min Rain = 0
KSGV 150020Z 14007KT 05/01 A3014 RMK A01 T00470009  RH  077%=      5-min Rain = 0
KSGV 150025Z 13007KT 05/01 A3014 RMK A01 T00460009  RH  078%=      5-min Rain = 0
KSGV 150030Z 13007KT 05/01 A3014 RMK A01 T00460009  RH  078%=      5-min Rain = 0
KSGV 150035Z 14007KT 04/01 A3014 RMK A01 T00440009  RH  079%=      5-min Rain = 0
KSGV 150040Z 14007KT 04/01 A3014 RMK A01 T00420008  RH  080%=      5-min Rain = 0
KSGV 150045Z 14006KT 04/01 A3014 RMK A01 T00400007  RH  081%=      5-min Rain = 0
KSGV 150050Z 14005KT 04/01 A3014 RMK A01 T00380007  RH  081%=      5-min Rain = 0
KSGV 150055Z 13004KT 03/01 A3014 RMK A01 T00340005  RH  082%=      5-min Rain = 0
KSGV 150100Z 13003KT 03/01 A3014 RMK A01 T00330005  RH  083%=      5-min Rain = 0
KSGV 150105Z 12003KT 03/01 A3014 RMK A01 T00320006  RH  084%=      5-min Rain = 0
KSGV 150110Z 13004KT 03/00 A3014 RMK A01 T00300004  RH  084%=      5-min Rain = 0
KSGV 150115Z 13005KT 03/00 A3014 RMK A01 T00270002  RH  085%=      5-min Rain = 0
KSGV 150120Z 14005KT 02/00 A3014 RMK A01 T00240000  RH  086%=      5-min Rain = 0
KSGV 150125Z 14005KT 02/00 A3014 RMK A01 T00230002  RH  087%=      5-min Rain = 0
KSGV 150130Z 13004KT 02/00 A3014 RMK A01 T00230001  RH  087%=      5-min Rain = 0
KSGV 150135Z 13003KT 02/00 A3014 RMK A01 T00230002  RH  088%=      5-min Rain = 0
KSGV 150140Z 12002KT 03/01 A3014 RMK A01 T00250005  RH  088%=      5-min Rain = 0
KSGV 150145Z 12001KT 02/00 A3014 RMK A01 T00240003  RH  087%=      5-min Rain = 0
KSGV 150150Z 12002KT 02/00 A3014 RMK A01 T00230003  RH  088%=      5-min Rain = 0
KSGV 150155Z 14002KT 02/00 A3014 RMK A01 T00230003  RH  088%=      5-min Rain = 0
KSGV 150200Z 14003KT 02/00 A3014 RMK A01 T00220003  RH  088%=      5-min Rain = 0
KSGV 150205Z 15004KT 02/00 A3014 RMK A01 T00220003  RH  088%=      5-min Rain = 0
KSGV 150210Z 15004KT 02/00 A3014 RMK A01 T00210002  RH  088%=      5-min Rain = 0
KSGV 150215Z 15004KT 02/00 A3014 RMK A01 T00200002  RH  089%=      5-min Rain = 0
KSGV 150220Z 16004KT 02/00 A3015 RMK A01 T00200002  RH  089%=      5-min Rain = 0
KSGV 150225Z 16004KT 02/M00 A3015 RMK A01 T00171001  RH  089%=      5-min Rain = 0
KSGV 150230Z 16003KT 02/00 A3015 RMK A01 T001700-0  RH  089%=      5-min Rain = 0
KSGV 150235Z 16003KT 02/00 A3016 RMK A01 T00170000  RH  090%=      5-min Rain = 0
KSGV 150240Z 17004KT 02/00 A3016 RMK A01 T001600-0  RH  090%=      5-min Rain = 0
KSGV 150245Z 16005KT 02/00 A3016 RMK A01 T00170002  RH  091%=      5-min Rain = 0
KSGV 150250Z 16004KT 02/00 A3016 RMK A01 T00180003  RH  091%=      5-min Rain = 0
KSGV 150255Z 16005KT 02/00 A3016 RMK A01 T00170002  RH  090%=      5-min Rain = 0
KSGV 150300Z 17006KT 02/00 A3016 RMK A01 T00160001  RH  091%=      5-min Rain = 0
KSGV 150305Z 16006KT 02/00 A3016 RMK A01 T00170002  RH  091%=      5-min Rain = 0
KSGV 150310Z 16007KT 02/01 A3016 RMK A01 T00200006  RH  091%=      5-min Rain = 0
KSGV 150315Z 16008KT 02/01 A3016 RMK A01 T00220006  RH  091%=      5-min Rain = 0
KSGV 150320Z 16007KT 03/01 A3016 RMK A01 T00250008  RH  090%=      5-min Rain = 0
KSGV 150325Z 17007KT 03/01 A3016 RMK A01 T00250008  RH  089%=      5-min Rain = 0
KSGV 150330Z 17006KT 02/01 A3016 RMK A01 T00230006  RH  089%=      5-min Rain = 0
KSGV 150335Z 17007KT 02/01 A3015 RMK A01 T00210005  RH  090%=      5-min Rain = 0
KSGV 150340Z 17007KT 02/01 A3015 RMK A01 T00220006  RH  090%=      5-min Rain = 0
KSGV 150345Z 17008KT 02/01 A3015 RMK A01 T00220006  RH  090%=      5-min Rain = 0
KSGV 150350Z 17008KT 02/01 A3015 RMK A01 T00210006  RH  091%=      5-min Rain = 0
KSGV 150355Z 17008KT 02/01 A3015 RMK A01 T00210006  RH  091%=      5-min Rain = 0
KSGV 150400Z 17008KT 02/01 A3015 RMK A01 T00210006  RH  091%=      5-min Rain = 0
KSGV 150405Z 17009KT 02/01 A3015 RMK A01 T00220007  RH  091%=      5-min Rain = 0
KSGV 150410Z 17009KT 03/01 A3014 RMK A01 T00250010  RH  091%=      5-min Rain = 0
KSGV 150415Z 18009KT 03/01 A3014 RMK A01 T00250009  RH  090%=      5-min Rain = 0
KSGV 150420Z 18008KT 02/01 A3015 RMK A01 T00240008  RH  090%=      5-min Rain = 0
KSGV 150425Z 19007KT 02/01 A3015 RMK A01 T00230007  RH  090%=      5-min Rain = 0
KSGV 150430Z 19006KT 02/01 A3015 RMK A01 T00200005  RH  091%=      5-min Rain = 0
KSGV 150435Z 19006KT 02/00 A3015 RMK A01 T00170002  RH  091%=      5-min Rain = 0
KSGV 150440Z 18006KT 01/00 A3015 RMK A01 T001400-0  RH  091%=      5-min Rain = 0
KSGV 150445Z 18006KT 01/M00 A3015 RMK A01 T00111002  RH  092%=      5-min Rain = 0
KSGV 150450Z 17005KT 01/M00 A3015 RMK A01 T00101002  RH  093%=      5-min Rain = 0
KSGV 150455Z 18004KT 01/M00 A3014 RMK A01 T00101002  RH  093%=      5-min Rain = 0
KSGV 150500Z 17004KT 01/M00 A3014 RMK A01 T00091002  RH  093%=      5-min Rain = 0
KSGV 150505Z 18005KT 01/M00 A3014 RMK A01 T00081003  RH  093%=      5-min Rain = 0
KSGV 150510Z 18005KT 01/M00 A3014 RMK A01 T00071004  RH  094%=      5-min Rain = 0
KSGV 150515Z 17005KT 01/M00 A3014 RMK A01 T00071003  RH  094%=      5-min Rain = 0
KSGV 150520Z 17005KT 01/M00 A3013 RMK A01 T00081002  RH  094%=      5-min Rain = 0
KSGV 150525Z 17005KT 01/M00 A3013 RMK A01 T00081001  RH  094%=      5-min Rain = 0
KSGV 150530Z 17005KT 01/M00 A3013 RMK A01 T00081002  RH  095%=      5-min Rain = 0
KSGV 150535Z 17005KT 01/M00 A3013 RMK A01 T00071002  RH  095%=      5-min Rain = 0
KSGV 150540Z 17005KT 01/M00 A3013 RMK A01 T00081001  RH  095%=      5-min Rain = 0
KSGV 150545Z 18004KT 01/M00 A3013 RMK A01 T00071001  RH  095%=      5-min Rain = 0
KSGV 150550Z 17004KT 01/M00 A3013 RMK A01 T00051003  RH  095%=      5-min Rain = 0
KSGV 150555Z 17004KT 00/M00 A3013 RMK A01 T00041004  RH  095%=      5-min Rain = 0

Page generated in 0.0351 seconds.